Time;durP1;ratioP1;P1;durP2;ratioP2;P2;SDS_P1;SDS_P2;PMS_P1;PMS_P2;Temp;Humidity;BMP_temperature;BMP_pressure;BME280_temperature;BME280_humidity;BME280_pressure;Samples;Min_cycle;Max_cycle;Signal;HPM_P1;HPM_P2
2024/04/08 00:01:03;;;;;;;3.92;1.00;;;13.70;99.90;;;;;;5460231;25;20768;-71
2024/04/08 00:03:29;;;;;;;4.68;1.38;;;13.70;99.90;;;;;;5457699;25;19998;-73
2024/04/08 00:05:56;;;;;;;4.25;1.67;;;13.60;99.90;;;;;;5442916;26;20056;-74
2024/04/08 00:08:22;;;;;;;5.13;0.80;;;13.60;99.90;;;;;;5458786;26;20018;-72
2024/04/08 00:10:47;;;;;;;7.15;1.15;;;13.60;99.90;;;;;;5460116;25;20007;-74
2024/04/08 00:13:13;;;;;;;6.35;0.63;;;13.60;99.90;;;;;;5457666;26;20427;-74
2024/04/08 00:15:38;;;;;;;5.45;0.90;;;13.60;99.90;;;;;;5453089;26;20464;-73
2024/04/08 00:18:04;;;;;;;4.47;0.90;;;13.60;99.90;;;;;;5456986;25;20017;-75
2024/04/08 00:20:30;;;;;;;2.53;0.65;;;13.60;99.90;;;;;;5463468;25;20351;-73
2024/04/08 00:22:56;;;;;;;2.95;1.05;;;13.60;99.90;;;;;;5461687;25;20002;-74
2024/04/08 00:25:21;;;;;;;8.07;0.90;;;13.60;99.90;;;;;;5459307;26;20080;-75
2024/04/08 00:27:47;;;;;;;4.57;0.85;;;13.50;99.90;;;;;;5458449;25;19999;-74
2024/04/08 00:30:12;;;;;;;6.32;1.00;;;13.50;99.90;;;;;;5461289;25;19999;-73
2024/04/08 00:32:38;;;;;;;8.75;1.35;;;13.50;99.90;;;;;;5455687;26;19995;-74
2024/04/08 00:35:04;;;;;;;3.97;0.73;;;13.50;99.90;;;;;;5459443;25;20006;-74
2024/04/08 00:37:30;;;;;;;3.80;0.80;;;13.40;99.90;;;;;;5462977;25;19999;-73
2024/04/08 00:39:56;;;;;;;3.30;0.80;;;13.40;99.90;;;;;;5458469;25;20370;-73
2024/04/08 00:42:21;;;;;;;6.15;1.63;;;13.40;99.90;;;;;;5451702;26;20007;-73
2024/04/08 00:44:47;;;;;;;6.10;1.00;;;13.40;99.90;;;;;;5457036;25;20083;-74
2024/04/08 00:47:14;;;;;;;7.10;1.40;;;13.40;99.90;;;;;;5459429;25;20002;-76
2024/04/08 00:49:41;;;;;;;4.20;1.02;;;13.50;99.90;;;;;;5457139;26;20021;-76
2024/04/08 00:52:11;;;;;;;3.85;1.08;;;13.40;99.90;;;;;;5454999;25;21269;-74
2024/04/08 00:54:37;;;;;;;7.10;0.88;;;13.40;99.90;;;;;;5456271;26;19995;-73
2024/04/08 00:57:05;;;;;;;4.22;1.05;;;13.40;99.90;;;;;;5460312;25;20002;-73
2024/04/08 00:59:33;;;;;;;4.40;1.00;;;13.40;99.90;;;;;;5460098;25;20026;-75
2024/04/08 01:02:00;;;;;;;1.95;0.57;;;13.40;99.90;;;;;;5461803;25;20061;-73
2024/04/08 01:04:26;;;;;;;3.67;0.60;;;13.40;99.90;;;;;;5460200;25;20011;-72
2024/04/08 01:06:52;;;;;;;4.55;0.73;;;13.40;99.90;;;;;;5448399;25;20002;-74
2024/04/08 01:09:17;;;;;;;8.68;1.65;;;13.40;99.90;;;;;;5458923;25;20072;-74
2024/04/08 01:11:44;;;;;;;11.02;1.42;;;13.40;99.90;;;;;;5454658;25;20442;-72
2024/04/08 01:14:09;;;;;;;3.63;0.80;;;13.40;99.90;;;;;;5460021;25;20011;-73
2024/04/08 01:16:35;;;;;;;8.73;0.88;;;13.40;99.90;;;;;;5467565;25;20014;-74
2024/04/08 01:19:01;;;;;;;8.18;1.33;;;13.50;99.90;;;;;;5463337;25;20471;-74
2024/04/08 01:21:27;;;;;;;6.38;1.15;;;13.40;99.90;;;;;;5451639;26;20044;-73
2024/04/08 01:23:52;;;;;;;7.72;0.73;;;13.50;99.90;;;;;;5453892;26;19998;-73
2024/04/08 01:26:18;;;;;;;5.63;1.33;;;13.50;99.90;;;;;;5458692;26;20007;-74
2024/04/08 01:28:44;;;;;;;6.25;0.75;;;13.50;99.90;;;;;;5467795;26;20416;-73
2024/04/08 01:31:10;;;;;;;3.67;0.70;;;13.50;99.90;;;;;;5461002;26;20011;-73
2024/04/08 01:33:37;;;;;;;5.18;0.80;;;13.60;99.90;;;;;;5468639;26;20003;-73
2024/04/08 01:36:04;;;;;;;7.65;1.20;;;13.60;99.90;;;;;;5463567;26;20002;-73
2024/04/08 01:38:31;;;;;;;1.58;0.80;;;13.60;99.90;;;;;;5461066;26;20003;-73
2024/04/08 01:40:57;;;;;;;9.10;1.45;;;13.60;99.90;;;;;;5464356;26;20372;-74
2024/04/08 01:43:23;;;;;;;2.72;1.05;;;13.60;99.90;;;;;;5458936;26;19998;-69
2024/04/08 01:45:52;;;;;;;4.68;1.48;;;13.60;99.90;;;;;;5465219;26;20699;-70
2024/04/08 01:48:17;;;;;;;2.03;1.10;;;13.60;99.90;;;;;;5452575;26;19998;-72
2024/04/08 01:50:43;;;;;;;5.88;1.27;;;13.70;99.90;;;;;;5465161;26;20011;-73
2024/04/08 01:53:08;;;;;;;4.15;1.15;;;13.60;99.90;;;;;;5458513;25;20014;-73
2024/04/08 01:55:34;;;;;;;3.45;1.13;;;13.60;99.90;;;;;;5456706;25;19999;-75
2024/04/08 01:58:00;;;;;;;2.45;0.85;;;13.60;99.90;;;;;;5462697;25;20002;-74
2024/04/08 02:00:25;;;;;;;3.90;1.17;;;13.60;99.90;;;;;;5463658;26;20096;-71
2024/04/08 02:02:51;;;;;;;2.85;0.93;;;13.50;99.90;;;;;;5464369;26;20006;-73
2024/04/08 02:05:17;;;;;;;5.63;1.50;;;13.50;99.90;;;;;;5469838;25;19998;-73
2024/04/08 02:07:43;;;;;;;4.40;1.38;;;13.50;99.90;;;;;;5457635;26;20348;-75
2024/04/08 02:10:09;;;;;;;6.15;2.10;;;13.50;99.90;;;;;;5455848;26;20010;-74
2024/04/08 02:12:35;;;;;;;4.72;2.10;;;13.50;99.90;;;;;;5463155;26;20010;-74
2024/04/08 02:15:00;;;;;;;3.75;1.23;;;13.40;99.90;;;;;;5465795;25;19998;-75
2024/04/08 02:17:26;;;;;;;3.45;1.50;;;13.40;99.90;;;;;;5459862;26;20014;-74
2024/04/08 02:19:52;;;;;;;2.45;1.23;;;13.40;99.90;;;;;;5466706;26;20006;-73
2024/04/08 02:22:18;;;;;;;4.75;1.75;;;13.40;99.90;;;;;;5459328;26;20874;-74
2024/04/08 02:24:43;;;;;;;2.60;1.10;;;13.40;99.90;;;;;;5460123;26;20009;-77
2024/04/08 02:27:09;;;;;;;3.42;1.75;;;13.30;99.90;;;;;;5459969;25;20003;-74
2024/04/08 02:29:35;;;;;;;2.85;0.98;;;13.30;99.90;;;;;;5465295;26;20447;-72
2024/04/08 02:32:01;;;;;;;3.40;1.20;;;13.30;99.90;;;;;;5456801;25;19999;-72
2024/04/08 02:34:27;;;;;;;3.75;1.42;;;13.30;99.90;;;;;;5464617;26;20010;-72
2024/04/08 02:36:52;;;;;;;4.28;1.77;;;13.30;99.90;;;;;;5462095;26;20073;-74
2024/04/08 02:39:18;;;;;;;2.83;1.45;;;13.30;99.90;;;;;;5460573;26;20010;-75
2024/04/08 02:41:44;;;;;;;10.80;1.33;;;13.30;99.90;;;;;;5457255;26;19998;-74
2024/04/08 02:44:09;;;;;;;3.28;1.35;;;13.30;99.90;;;;;;5449459;25;19997;-72
2024/04/08 02:46:35;;;;;;;5.63;1.73;;;13.30;99.90;;;;;;5465335;26;20006;-74
2024/04/08 02:49:01;;;;;;;3.50;1.30;;;13.30;99.90;;;;;;5452729;25;20014;-74
2024/04/08 02:51:26;;;;;;;3.38;1.40;;;13.30;99.90;;;;;;5460397;26;20003;-74
2024/04/08 02:53:52;;;;;;;4.22;1.20;;;13.30;99.90;;;;;;5467733;26;20692;-74
2024/04/08 02:56:18;;;;;;;3.42;1.48;;;13.30;99.90;;;;;;5450774;26;20079;-74
2024/04/08 02:58:48;;;;;;;4.07;1.55;;;13.30;99.90;;;;;;5462189;26;20017;-74
2024/04/08 03:01:14;;;;;;;9.73;2.10;;;13.30;99.90;;;;;;5456093;26;20002;-74
2024/04/08 03:03:40;;;;;;;6.60;1.70;;;13.30;99.90;;;;;;5467014;26;20481;-75
2024/04/08 03:06:13;;;;;;;3.67;1.88;;;13.30;99.90;;;;;;5462881;26;20448;-75
2024/04/08 03:08:40;;;;;;;5.32;1.42;;;13.30;99.90;;;;;;5460040;25;20017;-73
2024/04/08 03:11:06;;;;;;;4.40;1.83;;;13.20;99.90;;;;;;5461791;26;20089;-76
2024/04/08 03:13:33;;;;;;;5.97;1.85;;;13.20;99.90;;;;;;5452903;26;20017;-74
2024/04/08 03:15:58;;;;;;;7.05;1.70;;;13.20;99.90;;;;;;5457842;26;20008;-73
2024/04/08 03:18:24;;;;;;;4.53;2.05;;;13.20;99.90;;;;;;5462061;26;20003;-74
2024/04/08 03:21:00;;;;;;;4.65;1.95;;;13.20;99.90;;;;;;5460663;26;19999;-76
2024/04/08 03:23:25;;;;;;;5.72;1.70;;;13.20;99.90;;;;;;5460355;25;20030;-74
2024/04/08 03:26:04;;;;;;;4.63;2.10;;;13.10;99.90;;;;;;5462546;26;20003;-74
2024/04/08 03:28:30;;;;;;;6.82;1.85;;;13.10;99.90;;;;;;5407117;26;20010;-75
2024/04/08 03:30:58;;;;;;;5.25;1.95;;;13.10;99.90;;;;;;5460203;25;20031;-74
2024/04/08 03:33:25;;;;;;;8.35;2.22;;;13.20;99.90;;;;;;5468158;25;20004;-72
2024/04/08 03:35:51;;;;;;;4.35;1.85;;;13.10;99.90;;;;;;5462270;25;19999;-74
2024/04/08 03:38:17;;;;;;;3.97;1.50;;;13.10;99.90;;;;;;5446134;26;20028;-74
2024/04/08 03:40:44;;;;;;;3.55;1.58;;;13.10;99.90;;;;;;5438607;26;19999;-75
2024/04/08 03:43:10;;;;;;;4.65;1.55;;;13.10;99.90;;;;;;5457204;25;20011;-73
2024/04/08 03:45:38;;;;;;;3.13;1.40;;;13.00;99.90;;;;;;5457216;25;20009;-75
2024/04/08 03:48:04;;;;;;;3.83;1.67;;;12.90;99.90;;;;;;5467462;25;20010;-75
2024/04/08 03:50:31;;;;;;;4.53;1.45;;;12.90;99.90;;;;;;5459453;26;20013;-75
2024/04/08 03:52:57;;;;;;;4.95;1.80;;;12.90;99.90;;;;;;5463655;25;20480;-74
2024/04/08 03:55:27;;;;;;;4.22;1.73;;;13.00;99.90;;;;;;5462482;25;20009;-73
2024/04/08 03:57:53;;;;;;;4.57;1.33;;;13.00;99.90;;;;;;5457277;25;20348;-74
2024/04/08 04:00:19;;;;;;;5.25;1.75;;;12.90;99.90;;;;;;5443257;26;20000;-76
2024/04/08 04:02:45;;;;;;;4.78;1.60;;;13.00;99.90;;;;;;5459521;26;20014;-74
2024/04/08 04:05:11;;;;;;;5.00;1.80;;;12.90;99.90;;;;;;5461448;25;20006;-75
2024/04/08 04:07:37;;;;;;;4.45;1.67;;;12.90;99.90;;;;;;5456300;25;19995;-75
2024/04/08 04:10:08;;;;;;;4.20;1.40;;;12.90;99.90;;;;;;5455622;26;20002;-72
2024/04/08 04:12:36;;;;;;;6.45;1.55;;;12.90;99.90;;;;;;5450081;26;20852;-74
2024/04/08 04:15:06;;;;;;;3.92;1.30;;;13.00;99.90;;;;;;5463597;25;20876;-75
2024/04/08 04:17:32;;;;;;;4.55;1.27;;;13.00;99.90;;;;;;5453110;26;19999;-76
2024/04/08 04:19:58;;;;;;;7.50;1.58;;;13.00;99.90;;;;;;5449914;26;20026;-73
2024/04/08 04:22:24;;;;;;;4.38;1.88;;;13.00;99.90;;;;;;5463803;25;20039;-73
2024/04/08 04:24:50;;;;;;;3.20;1.42;;;12.90;99.90;;;;;;5456381;25;19998;-72
2024/04/08 04:27:16;;;;;;;2.45;1.30;;;12.90;99.90;;;;;;5462515;25;20009;-71
2024/04/08 04:29:41;;;;;;;3.55;0.95;;;12.90;99.90;;;;;;5460176;26;20419;-72
2024/04/08 04:32:07;;;;;;;5.55;1.42;;;12.90;99.90;;;;;;5467110;25;20002;-77
2024/04/08 04:34:33;;;;;;;3.85;1.77;;;12.80;99.90;;;;;;5451430;26;20013;-74
2024/04/08 04:36:59;;;;;;;2.70;1.30;;;12.80;99.90;;;;;;5457975;25;20002;-75
2024/04/08 04:39:24;;;;;;;3.05;1.10;;;12.80;99.90;;;;;;5456126;25;20367;-75
2024/04/08 04:41:50;;;;;;;6.07;1.65;;;12.80;99.90;;;;;;5453224;26;20009;-74
2024/04/08 04:44:17;;;;;;;3.83;1.20;;;12.80;99.90;;;;;;5460495;25;20002;-77
2024/04/08 04:46:42;;;;;;;2.63;1.50;;;12.70;99.90;;;;;;5462065;25;20397;-75
2024/04/08 04:49:08;;;;;;;5.97;1.10;;;12.70;99.90;;;;;;5460887;25;20010;-74
2024/04/08 04:51:33;;;;;;;4.57;1.45;;;12.70;99.90;;;;;;5457675;26;20073;-75
2024/04/08 04:53:59;;;;;;;3.70;1.75;;;12.70;99.90;;;;;;5456016;25;19999;-74
2024/04/08 04:56:25;;;;;;;5.53;1.60;;;12.70;99.90;;;;;;5453201;26;21028;-78
2024/04/08 04:58:50;;;;;;;3.40;2.15;;;12.70;99.90;;;;;;5460691;25;19999;-74
2024/04/08 05:01:16;;;;;;;6.63;1.67;;;12.70;99.90;;;;;;5455331;25;19999;-74
2024/04/08 05:03:42;;;;;;;5.00;1.40;;;12.70;99.90;;;;;;5458949;25;19995;-75
2024/04/08 05:06:07;;;;;;;2.92;1.20;;;12.70;99.90;;;;;;5455848;25;20013;-75
2024/04/08 05:08:33;;;;;;;2.95;1.17;;;12.80;99.90;;;;;;5456347;26;20332;-75
2024/04/08 05:10:58;;;;;;;2.72;1.02;;;12.80;99.90;;;;;;5466601;25;19998;-74
2024/04/08 05:13:24;;;;;;;6.93;1.30;;;12.80;99.90;;;;;;5465420;25;20011;-73
2024/04/08 05:16:05;;;;;;;3.70;1.48;;;12.80;99.90;;;;;;5465845;26;19998;-71
2024/04/08 05:18:31;;;;;;;;;;;12.80;99.90;;;;;;5447809;26;19999;-74
2024/04/08 05:20:58;;;;;;;8.68;1.55;;;12.80;99.90;;;;;;5444123;25;19925;-73
2024/04/08 05:23:25;;;;;;;4.70;1.35;;;12.80;99.90;;;;;;5450037;25;20005;-73
2024/04/08 05:25:53;;;;;;;5.15;2.00;;;12.90;99.90;;;;;;5454384;26;20003;-73
2024/04/08 05:28:19;;;;;;;3.88;1.20;;;12.90;99.90;;;;;;5458797;26;19999;-74
2024/04/08 05:30:45;;;;;;;3.58;1.20;;;12.90;99.90;;;;;;5467510;25;20017;-77
2024/04/08 05:33:10;;;;;;;4.18;1.92;;;12.90;99.90;;;;;;5456858;25;20058;-74
2024/04/08 05:35:37;;;;;;;3.75;1.20;;;12.90;99.90;;;;;;5455178;26;20014;-74
2024/04/08 05:38:03;;;;;;;4.05;1.25;;;12.90;99.90;;;;;;5458759;25;20002;-73
2024/04/08 05:40:33;;;;;;;1.77;0.95;;;12.90;99.90;;;;;;5447162;26;19994;-73
2024/04/08 05:42:59;;;;;;;2.63;1.20;;;13.00;99.90;;;;;;5442611;26;20102;-73
2024/04/08 05:45:24;;;;;;;3.22;1.23;;;13.10;99.90;;;;;;5462698;25;19999;-73
2024/04/08 05:47:54;;;;;;;3.33;1.42;;;13.00;99.90;;;;;;5462709;26;20003;-72
2024/04/08 05:50:20;;;;;;;2.40;1.42;;;13.10;99.90;;;;;;5463540;25;20002;-77
2024/04/08 05:52:46;;;;;;;1.80;1.02;;;13.20;99.90;;;;;;5466908;25;20006;-75
2024/04/08 05:55:11;;;;;;;2.63;1.02;;;13.20;99.90;;;;;;5460335;25;20003;-74
2024/04/08 05:57:37;;;;;;;3.10;1.20;;;13.20;99.90;;;;;;5456404;26;20048;-73
2024/04/08 06:00:03;;;;;;;4.40;1.27;;;13.20;99.90;;;;;;5463205;25;20002;-74
2024/04/08 06:02:29;;;;;;;3.58;1.08;;;13.30;99.90;;;;;;5441695;26;20117;-74
2024/04/08 06:04:55;;;;;;;5.03;1.58;;;13.40;99.90;;;;;;5465898;26;20014;-74
2024/04/08 06:07:21;;;;;;;4.50;0.98;;;13.50;99.90;;;;;;5446165;25;20021;-73
2024/04/08 06:09:46;;;;;;;3.30;1.15;;;13.60;99.90;;;;;;5466462;25;20025;-76
2024/04/08 06:12:12;;;;;;;2.13;1.05;;;13.60;99.90;;;;;;5459257;25;20436;-75
2024/04/08 06:14:38;;;;;;;2.25;0.98;;;13.70;99.90;;;;;;5456558;26;20540;-75
2024/04/08 06:17:04;;;;;;;4.03;1.15;;;13.70;99.90;;;;;;5465518;25;20175;-73
2024/04/08 06:19:31;;;;;;;1.30;0.70;;;13.80;99.90;;;;;;5457922;26;20395;-74
2024/04/08 06:21:57;;;;;;;2.10;1.20;;;13.80;99.90;;;;;;5461793;25;20856;-75
2024/04/08 06:24:24;;;;;;;2.30;0.88;;;14.00;99.90;;;;;;5468330;25;20052;-72
2024/04/08 06:26:50;;;;;;;7.22;1.27;;;14.50;99.90;;;;;;5464994;26;19994;-75
2024/04/08 06:29:15;;;;;;;2.42;0.77;;;14.80;99.90;;;;;;5465154;25;20006;-75
2024/04/08 06:31:41;;;;;;;4.55;1.17;;;15.20;99.90;;;;;;5431808;26;20011;-75
2024/04/08 06:34:07;;;;;;;3.88;0.93;;;15.60;99.90;;;;;;5448118;25;20520;-75
2024/04/08 06:36:32;;;;;;;2.65;1.00;;;15.80;99.90;;;;;;5463751;25;19998;-75
2024/04/08 06:38:58;;;;;;;2.75;0.80;;;15.80;99.90;;;;;;5460673;25;19990;-75
2024/04/08 06:41:24;;;;;;;4.13;0.95;;;15.90;99.90;;;;;;5456147;26;20087;-74
2024/04/08 06:43:49;;;;;;;2.40;1.38;;;15.90;99.90;;;;;;5461404;25;20041;-74
2024/04/08 06:46:15;;;;;;;4.63;1.60;;;15.80;99.90;;;;;;5464724;25;20075;-77
2024/04/08 06:48:40;;;;;;;2.83;0.82;;;15.80;99.90;;;;;;5464965;25;20528;-74
2024/04/08 06:51:06;;;;;;;1.77;0.77;;;15.80;99.90;;;;;;5455411;25;20383;-74
2024/04/08 06:53:31;;;;;;;4.20;1.10;;;15.90;99.90;;;;;;5464589;25;20726;-74
2024/04/08 06:55:57;;;;;;;3.72;1.30;;;16.00;99.90;;;;;;5452994;25;20558;-73
2024/04/08 06:58:24;;;;;;;2.22;1.30;;;16.00;99.90;;;;;;5451712;26;20356;-72
2024/04/08 07:00:50;;;;;;;2.15;0.70;;;16.00;99.90;;;;;;5461345;25;20378;-74
2024/04/08 07:03:16;;;;;;;2.45;0.68;;;15.80;99.90;;;;;;5463761;25;20448;-74
2024/04/08 07:05:44;;;;;;;1.75;1.00;;;15.80;99.90;;;;;;5463316;25;20002;-74
2024/04/08 07:08:09;;;;;;;2.15;1.20;;;15.70;99.90;;;;;;5452306;25;20014;-75
2024/04/08 07:10:35;;;;;;;2.33;1.25;;;15.70;99.90;;;;;;5462745;26;19997;-75
2024/04/08 07:13:02;;;;;;;1.85;1.10;;;15.60;99.90;;;;;;5458606;26;19998;-74
2024/04/08 07:15:28;;;;;;;2.90;1.00;;;15.60;99.90;;;;;;5462196;25;19994;-75
2024/04/08 07:17:53;;;;;;;7.10;1.13;;;15.70;99.90;;;;;;5458098;26;19991;-75
2024/04/08 07:20:19;;;;;;;5.65;1.27;;;15.70;99.90;;;;;;5457629;25;19994;-74
2024/04/08 07:22:45;;;;;;;2.22;0.98;;;15.80;99.90;;;;;;5456170;25;20042;-74
2024/04/08 07:25:12;;;;;;;2.92;1.13;;;15.80;99.90;;;;;;5454004;25;19991;-74
2024/04/08 07:27:38;;;;;;;2.40;0.70;;;16.00;99.90;;;;;;5457023;25;20002;-75
2024/04/08 07:30:04;;;;;;;1.42;0.60;;;16.00;99.90;;;;;;5449255;26;20000;-75
2024/04/08 07:32:31;;;;;;;5.85;1.23;;;16.00;99.90;;;;;;5455977;25;20023;-74
2024/04/08 07:34:57;;;;;;;2.28;1.10;;;16.00;99.90;;;;;;5455254;26;20003;-76
2024/04/08 07:37:22;;;;;;;9.60;1.38;;;16.10;99.90;;;;;;5465743;25;20553;-70
2024/04/08 07:39:49;;;;;;;4.15;0.95;;;16.10;99.90;;;;;;5460866;25;20031;-74
2024/04/08 07:42:15;;;;;;;2.38;1.27;;;16.00;99.90;;;;;;5461120;25;20010;-74
2024/04/08 07:44:41;;;;;;;3.45;1.08;;;16.00;99.90;;;;;;5459356;26;20067;-76
2024/04/08 07:47:06;;;;;;;4.78;1.45;;;16.00;99.90;;;;;;5431473;26;19995;-74
2024/04/08 07:49:32;;;;;;;5.30;1.08;;;15.90;99.90;;;;;;5452771;25;20454;-74
2024/04/08 07:51:57;;;;;;;4.18;1.10;;;15.80;99.90;;;;;;5455456;25;20440;-74
2024/04/08 07:54:23;;;;;;;6.10;1.23;;;15.80;99.90;;;;;;5460075;25;20451;-73
2024/04/08 07:56:49;;;;;;;2.83;1.05;;;15.80;99.90;;;;;;5460686;25;19998;-74
2024/04/08 07:59:15;;;;;;;3.35;0.90;;;15.80;99.90;;;;;;5452012;26;20076;-74
2024/04/08 08:01:40;;;;;;;4.18;1.42;;;15.90;99.90;;;;;;5454155;26;20021;-74
2024/04/08 08:04:06;;;;;;;2.25;0.63;;;16.00;99.90;;;;;;5458437;25;20002;-77
2024/04/08 08:06:32;;;;;;;2.95;0.77;;;16.10;99.90;;;;;;5464363;25;20014;-75
2024/04/08 08:08:57;;;;;;;1.92;1.17;;;16.20;99.90;;;;;;5459231;26;20007;-75
2024/04/08 08:11:23;;;;;;;3.25;0.98;;;16.30;99.90;;;;;;5463014;25;19998;-72
2024/04/08 08:13:48;;;;;;;1.98;1.00;;;16.50;99.90;;;;;;5459992;25;20003;-75
2024/04/08 08:16:14;;;;;;;4.40;0.88;;;16.70;99.90;;;;;;5464244;26;20043;-75
2024/04/08 08:18:40;;;;;;;2.55;0.60;;;16.70;99.90;;;;;;5460158;26;20005;-75
2024/04/08 08:21:06;;;;;;;3.72;1.08;;;16.70;99.90;;;;;;5456280;25;20313;-76
2024/04/08 08:23:32;;;;;;;4.72;1.00;;;16.80;99.90;;;;;;5447020;26;19996;-74
2024/04/08 08:25:58;;;;;;;3.25;0.88;;;16.70;99.90;;;;;;5456100;26;20405;-75
2024/04/08 08:28:24;;;;;;;1.35;0.57;;;16.80;99.90;;;;;;5463468;25;20010;-73
2024/04/08 08:30:50;;;;;;;1.67;0.68;;;17.00;99.90;;;;;;5458144;26;19995;-75
2024/04/08 08:33:16;;;;;;;2.78;0.47;;;17.10;99.90;;;;;;5456744;25;20445;-74
2024/04/08 08:35:42;;;;;;;1.20;0.52;;;17.20;99.90;;;;;;5458532;26;19998;-75
2024/04/08 08:38:07;;;;;;;3.55;0.73;;;17.30;99.90;;;;;;5458289;25;19998;-75
2024/04/08 08:40:42;;;;;;;4.20;0.85;;;17.40;99.90;;;;;;5453720;25;19990;-74
2024/04/08 08:43:08;;;;;;;3.78;0.93;;;17.50;99.90;;;;;;5456559;25;20022;-75
2024/04/08 08:45:36;;;;;;;2.72;0.82;;;17.60;99.90;;;;;;5460356;25;20021;-75
2024/04/08 08:48:03;;;;;;;2.60;0.50;;;17.80;99.90;;;;;;5458080;25;20005;-75
2024/04/08 08:50:29;;;;;;;2.85;0.60;;;17.80;99.90;;;;;;5460271;25;20006;-75
2024/04/08 08:52:55;;;;;;;2.38;1.00;;;17.80;99.90;;;;;;5449119;26;19998;-75
2024/04/08 08:55:24;;;;;;;6.20;1.25;;;17.90;99.90;;;;;;5463286;25;20078;-75
2024/04/08 08:57:53;;;;;;;3.50;0.63;;;17.90;99.90;;;;;;5445425;26;20052;-74
2024/04/08 09:00:19;;;;;;;1.10;0.40;;;17.90;99.90;;;;;;5466141;25;20010;-75
2024/04/08 09:02:45;;;;;;;2.55;0.80;;;18.00;99.90;;;;;;5454250;26;19994;-74
2024/04/08 09:05:11;;;;;;;1.20;0.45;;;18.00;99.90;;;;;;5465852;26;20017;-75
2024/04/08 09:07:36;;;;;;;3.25;0.90;;;17.90;99.90;;;;;;5462907;25;20339;-73
2024/04/08 09:10:02;;;;;;;1.85;0.57;;;18.00;99.90;;;;;;5460483;25;20799;-73
2024/04/08 09:12:28;;;;;;;1.95;0.88;;;18.10;99.90;;;;;;5459209;25;20021;-74
2024/04/08 09:14:54;;;;;;;3.67;0.70;;;18.30;99.90;;;;;;5448019;25;19999;-74
2024/04/08 09:17:20;;;;;;;0.90;0.50;;;18.30;99.90;;;;;;5455036;25;20072;-75
2024/04/08 09:19:47;;;;;;;1.58;0.82;;;18.40;99.90;;;;;;5461898;25;20011;-75
2024/04/08 09:22:13;;;;;;;1.65;0.60;;;18.30;99.90;;;;;;5451335;26;20013;-75
2024/04/08 09:24:42;;;;;;;2.92;0.75;;;18.40;99.90;;;;;;5451320;25;20010;-73
2024/04/08 09:27:07;;;;;;;1.75;0.65;;;18.40;99.90;;;;;;5433717;25;20003;-74
2024/04/08 09:29:33;;;;;;;1.15;0.57;;;18.50;99.90;;;;;;5461092;25;19998;-74
2024/04/08 09:32:00;;;;;;;2.20;0.70;;;18.70;99.90;;;;;;5463012;25;20355;-74
2024/04/08 09:34:28;;;;;;;2.15;0.85;;;18.80;99.90;;;;;;5449921;26;19998;-74
2024/04/08 09:36:54;;;;;;;6.18;1.05;;;18.90;99.90;;;;;;5443161;25;20007;-74
2024/04/08 09:39:22;;;;;;;5.60;1.58;;;19.00;99.90;;;;;;5459904;26;19998;-74
2024/04/08 09:41:49;;;;;;;2.28;0.70;;;19.10;99.90;;;;;;5444859;26;20080;-75
2024/04/08 09:44:17;;;;;;;2.50;0.88;;;19.20;99.90;;;;;;5454793;26;20464;-74
2024/04/08 09:46:45;;;;;;;3.25;0.90;;;19.20;99.90;;;;;;5459979;25;19999;-74
2024/04/08 09:49:11;;;;;;;1.88;0.85;;;19.10;99.90;;;;;;5448765;25;20047;-74
2024/04/08 09:51:40;;;;;;;3.08;1.00;;;19.30;99.90;;;;;;5469058;25;20009;-74
2024/04/08 09:54:07;;;;;;;1.35;0.65;;;19.40;99.90;;;;;;5452876;25;20012;-72
2024/04/08 09:56:36;;;;;;;3.83;0.80;;;19.50;99.90;;;;;;5457111;25;20399;-74
2024/04/08 09:59:19;;;;;;;3.65;1.05;;;19.60;99.90;;;;;;5461134;26;20850;-73
2024/04/08 10:01:46;;;;;;;2.05;0.75;;;19.80;99.90;;;;;;5452322;26;20076;-73
2024/04/08 10:04:14;;;;;;;4.90;0.90;;;19.90;99.90;;;;;;5459163;25;20010;-75
2024/04/08 10:06:41;;;;;;;4.40;1.30;;;19.80;99.90;;;;;;5466598;25;19999;-74
2024/04/08 10:09:09;;;;;;;2.40;1.00;;;19.90;99.90;;;;;;5460156;25;20005;-73
2024/04/08 10:11:35;;;;;;;3.22;1.02;;;19.80;99.90;;;;;;5458496;25;20045;-74
2024/04/08 10:14:01;;;;;;;2.78;0.85;;;19.50;99.90;;;;;;5442814;26;20003;-75
2024/04/08 10:16:27;;;;;;;3.47;1.38;;;19.30;99.90;;;;;;5443996;25;20002;-74
2024/04/08 10:18:56;;;;;;;3.42;1.40;;;19.10;99.90;;;;;;5464027;25;20003;-73
2024/04/08 10:21:25;;;;;;;4.10;0.90;;;19.00;99.90;;;;;;5446904;25;20399;-74
2024/04/08 10:23:54;;;;;;;2.17;0.80;;;18.90;99.90;;;;;;5465238;25;19998;-73
2024/04/08 10:26:23;;;;;;;3.80;1.27;;;18.90;99.90;;;;;;5457124;25;20375;-74
2024/04/08 10:28:50;;;;;;;3.17;1.27;;;18.80;99.90;;;;;;5460840;26;20451;-74
2024/04/08 10:31:19;;;;;;;3.17;1.00;;;18.80;99.90;;;;;;5456992;26;20010;-75
2024/04/08 10:33:45;;;;;;;4.07;1.42;;;18.80;99.90;;;;;;5448292;25;20071;-74
2024/04/08 10:36:10;;;;;;;2.28;1.02;;;18.70;99.90;;;;;;5449599;26;19999;-73
2024/04/08 10:38:36;;;;;;;3.80;0.98;;;18.70;99.90;;;;;;5450802;25;20074;-74
2024/04/08 10:41:08;;;;;;;2.92;1.08;;;18.80;99.90;;;;;;5457840;26;19998;-73
2024/04/08 10:43:35;;;;;;;1.70;0.70;;;18.90;99.90;;;;;;5448946;26;20034;-74
2024/04/08 10:46:04;;;;;;;0.95;0.52;;;18.90;99.90;;;;;;5455914;26;20032;-74
2024/04/08 10:48:31;;;;;;;2.65;1.35;;;19.00;99.90;;;;;;5451709;25;20038;-71
2024/04/08 10:50:57;;;;;;;2.22;0.55;;;19.00;99.90;;;;;;5463287;25;20439;-74
2024/04/08 10:53:25;;;;;;;3.35;1.15;;;19.10;99.90;;;;;;5454128;25;20478;-76
2024/04/08 10:55:51;;;;;;;1.88;0.50;;;19.20;99.90;;;;;;5443504;25;20019;-73
2024/04/08 10:58:17;;;;;;;2.25;0.93;;;19.20;99.90;;;;;;5452528;26;19998;-75
2024/04/08 11:00:44;;;;;;;3.67;0.90;;;19.30;99.90;;;;;;5463744;25;20078;-74
2024/04/08 11:03:10;;;;;;;1.65;0.85;;;19.40;99.90;;;;;;5456743;25;20064;-74
2024/04/08 11:05:37;;;;;;;3.13;0.75;;;19.50;99.90;;;;;;5446589;26;20002;-73
2024/04/08 11:08:03;;;;;;;2.75;1.35;;;19.60;99.90;;;;;;5459706;26;20002;-73
2024/04/08 11:10:28;;;;;;;3.63;1.00;;;19.60;99.90;;;;;;5458356;25;19999;-73
2024/04/08 11:12:55;;;;;;;2.55;0.73;;;19.60;99.90;;;;;;5448665;25;20459;-72
2024/04/08 11:15:23;;;;;;;2.67;0.68;;;19.60;99.90;;;;;;5452862;26;19999;-74
2024/04/08 11:17:56;;;;;;;2.13;0.82;;;19.60;99.90;;;;;;5461701;25;20006;-74
2024/04/08 11:20:23;;;;;;;2.90;0.57;;;19.60;99.90;;;;;;5459975;26;19996;-74
2024/04/08 11:22:49;;;;;;;2.28;0.95;;;19.60;99.90;;;;;;5461695;25;20343;-74
2024/04/08 11:25:15;;;;;;;1.40;0.60;;;19.60;99.90;;;;;;5457513;25;19998;-74
2024/04/08 11:27:42;;;;;;;1.60;0.60;;;19.60;99.90;;;;;;5456470;25;20070;-73
2024/04/08 11:30:15;;;;;;;4.78;0.70;;;19.50;99.90;;;;;;5456900;25;20038;-75
2024/04/08 11:32:40;;;;;;;2.40;0.68;;;19.50;99.90;;;;;;5453202;25;20341;-73
2024/04/08 11:35:06;;;;;;;3.47;0.80;;;19.50;99.90;;;;;;5459994;26;20014;-74
2024/04/08 11:37:32;;;;;;;3.67;0.68;;;19.60;99.90;;;;;;5464190;25;20006;-74
2024/04/08 11:39:57;;;;;;;2.45;0.80;;;19.80;99.90;;;;;;5457118;25;19999;-72
2024/04/08 11:42:24;;;;;;;1.50;0.60;;;20.00;99.90;;;;;;5461693;26;19999;-72
2024/04/08 11:45:02;;;;;;;4.90;0.75;;;20.00;99.90;;;;;;5463488;25;20334;-75
2024/04/08 11:47:28;;;;;;;7.47;1.40;;;20.10;99.90;;;;;;5447452;25;20000;-74
2024/04/08 11:49:54;;;;;;;1.70;0.82;;;20.30;99.90;;;;;;5460188;25;20002;-74
2024/04/08 11:52:19;;;;;;;5.38;0.98;;;20.40;99.90;;;;;;5449506;26;19995;-73
2024/04/08 11:54:45;;;;;;;2.10;0.80;;;20.30;99.90;;;;;;5468373;25;19998;-74
2024/04/08 11:57:13;;;;;;;2.33;0.85;;;20.30;99.90;;;;;;5458497;26;20637;-73
2024/04/08 11:59:39;;;;;;;3.67;0.82;;;20.10;99.90;;;;;;5449857;25;20009;-75
2024/04/08 12:02:05;;;;;;;4.38;1.00;;;20.10;99.90;;;;;;5460785;26;20003;-74
2024/04/08 12:04:31;;;;;;;4.28;1.48;;;20.00;99.90;;;;;;5460137;26;20091;-73
2024/04/08 12:06:57;;;;;;;2.67;0.98;;;19.80;99.90;;;;;;5469155;25;20002;-73
2024/04/08 12:09:24;;;;;;;4.82;1.77;;;19.70;99.90;;;;;;5456305;25;20021;-73
2024/04/08 12:11:50;;;;;;;3.53;0.77;;;19.70;99.90;;;;;;5460823;26;20014;-74
2024/04/08 12:14:16;;;;;;;5.47;1.58;;;19.70;99.90;;;;;;5461286;25;19999;-73
2024/04/08 12:16:41;;;;;;;5.90;1.02;;;19.70;99.90;;;;;;5465756;25;20013;-74
2024/04/08 12:19:09;;;;;;;6.75;1.25;;;19.60;99.90;;;;;;5461752;26;20027;-74
2024/04/08 12:21:35;;;;;;;2.47;0.90;;;19.70;99.90;;;;;;5462864;26;20718;-73
2024/04/08 12:24:00;;;;;;;4.55;0.80;;;19.60;99.90;;;;;;5458860;25;20018;-75
2024/04/08 12:26:26;;;;;;;3.22;1.15;;;19.60;99.90;;;;;;5450094;26;20091;-74
2024/04/08 12:28:51;;;;;;;3.17;1.20;;;19.50;99.90;;;;;;5457117;25;20006;-70
2024/04/08 12:31:17;;;;;;;2.20;0.63;;;19.40;99.90;;;;;;5452108;25;20095;-76
2024/04/08 12:33:43;;;;;;;1.77;0.70;;;19.40;99.90;;;;;;5462630;25;20009;-74
2024/04/08 12:36:10;;;;;;;5.45;1.38;;;19.30;99.90;;;;;;5457307;26;20013;-76
2024/04/08 12:38:36;;;;;;;3.28;0.70;;;19.30;99.90;;;;;;5459539;26;20333;-75
2024/04/08 12:41:02;;;;;;;2.05;0.75;;;19.20;99.90;;;;;;5461506;25;20468;-74
2024/04/08 12:43:28;;;;;;;5.00;1.35;;;19.30;99.90;;;;;;5459651;25;20010;-74